Time;durP1;ratioP1;P1;durP2;ratioP2;P2;SDS_P1;SDS_P2;PMS_P1;PMS_P2;Temp;Humidity;BMP_temperature;BMP_pressure;BME280_temperature;BME280_humidity;BME280_pressure;Samples;Min_cycle;Max_cycle;Signal;HPM_P1;HPM_P2
2022/09/26 00:00:35;;;;;;;;;;;;;;;10.64;100.00;100685.06;5050177;28;19929;-73
2022/09/26 00:03:00;;;;;;;;;;;;;;;10.66;100.00;100675.25;5049292;28;19928;-73
2022/09/26 00:05:26;;;;;;;;;;;;;;;10.66;100.00;100675.25;5049487;28;19969;-73
2022/09/26 00:07:51;;;;;;;;;;;;;;;10.66;100.00;100672.59;5049762;28;20002;-73
2022/09/26 00:10:17;;;;;;;;;;;;;;;10.68;100.00;100662.78;5050120;28;20071;-73
2022/09/26 00:12:42;;;;;;;;;;;;;;;10.70;100.00;100649.47;5049672;28;19959;-73
2022/09/26 00:15:08;;;;;;;;;;;;;;;10.71;100.00;100652.06;5050771;28;19937;-73
2022/09/26 00:17:33;;;;;;;;;;;;;;;10.72;100.00;100635.22;5049749;28;20607;-74
2022/09/26 00:19:59;;;;;;;;;;;;;;;10.73;100.00;100634.28;5048057;28;19933;-73
2022/09/26 00:22:24;;;;;;;;;;;;;;;10.72;100.00;100627.28;5049036;28;19929;-73
2022/09/26 00:24:49;;;;;;;;;;;;;;;10.72;100.00;100615.81;5050453;28;19958;-73
2022/09/26 00:27:15;;;;;;;;;;;;;;;10.73;100.00;100609.59;5048621;28;20484;-73
2022/09/26 00:29:40;;;;;;;;;;;;;;;10.73;100.00;100604.28;5050779;28;19978;-73
2022/09/26 00:32:05;;;;;;;;;;;;;;;10.73;100.00;100602.50;5050470;28;21360;-73
2022/09/26 00:34:31;;;;;;;;;;;;;;;10.74;100.00;100595.44;5048923;28;19928;-73
2022/09/26 00:36:57;;;;;;;;;;;;;;;10.76;100.00;100592.69;5050096;28;19940;-74
2022/09/26 00:39:22;;;;;;;;;;;;;;;10.76;100.00;100582.09;5049823;28;19939;-73
2022/09/26 00:41:47;;;;;;;;;;;;;;;10.75;100.00;100580.38;5049986;28;21306;-73
2022/09/26 00:44:32;;;;;;;;;;;;;;;10.75;100.00;100568.03;5051171;28;19936;-74
2022/09/26 00:46:57;;;;;;;;;;;;;;;10.76;100.00;100568.84;5081717;28;21202;-73
2022/09/26 00:49:30;;;;;;;;;;;;;;;10.77;100.00;100566.16;5049299;28;20421;-73
2022/09/26 00:52:16;;;;;;;;;;;;;;;10.79;100.00;100553.66;5049288;28;20355;-73
2022/09/26 00:54:44;;;;;;;;;;;;;;;10.80;100.00;100555.41;5065204;28;19929;-74
2022/09/26 00:57:11;;;;;;;;;;;;;;;10.80;100.00;100544.81;5048947;28;19933;-73
2022/09/26 00:59:38;;;;;;;;;;;;;;;10.81;100.00;100540.38;5048804;28;19928;-73
2022/09/26 01:02:03;;;;;;;;;;;;;;;10.84;100.00;100534.94;5047425;28;19928;-73
2022/09/26 01:04:29;;;;;;;;;;;;;;;10.83;100.00;100528.75;5065762;28;19935;-73
2022/09/26 01:06:58;;;;;;;;;;;;;;;10.86;100.00;100522.44;5040105;28;19997;-73
2022/09/26 01:09:24;;;;;;;;;;;;;;;10.87;100.00;100521.50;5049972;28;19925;-73
2022/09/26 01:11:49;;;;;;;;;;;;;;;10.91;100.00;100512.47;5050422;28;19993;-73
2022/09/26 01:14:14;;;;;;;;;;;;;;;10.93;100.00;100512.38;5049218;28;20481;-74
2022/09/26 01:16:41;;;;;;;;;;;;;;;10.96;100.00;100505.13;5050458;28;20461;-73
2022/09/26 01:19:12;;;;;;;;;;;;;;;10.98;100.00;100505.94;5046952;28;19932;-74
2022/09/26 01:21:56;;;;;;;;;;;;;;;11.02;100.00;100497.81;5047905;28;20489;-74
2022/09/26 01:24:24;;;;;;;;;;;;;;;11.03;100.00;100491.56;5050053;28;20015;-73
2022/09/26 01:27:09;;;;;;;;;;;;;;;11.04;100.00;100487.97;5050018;28;19925;-74
2022/09/26 01:29:53;;;;;;;;;;;;;;;11.06;100.00;100486.13;5049576;28;20101;-73
2022/09/26 01:35:08;;;;;;;;;;;;;;;11.05;100.00;100472.00;5048694;28;19928;-73
2022/09/26 01:37:38;;;;;;;;;;;;;;;11.05;100.00;100469.34;5048417;28;20281;-73
2022/09/26 01:40:08;;;;;;;;;;;;;;;11.05;100.00;100469.34;5081033;28;19924;-73
2022/09/26 01:42:53;;;;;;;;;;;;;;;11.05;100.00;100461.41;5049097;28;19951;-73
2022/09/26 01:45:23;;;;;;;;;;;;;;;11.05;100.00;100460.56;5049345;28;19924;-74
2022/09/26 01:47:56;;;;;;;;;;;;;;;11.05;100.00;100455.28;5064977;28;19972;-73
2022/09/26 01:50:36;;;;;;;;;;;;;;;11.02;100.00;100458.94;5047311;28;20021;-73
2022/09/26 01:53:05;;;;;;;;;;;;;;;11.02;100.00;100450.13;5047330;28;19982;-74
2022/09/26 01:55:33;;;;;;;;;;;;;;;11.00;100.00;100459.00;5046940;28;19977;-73
2022/09/26 01:57:58;;;;;;;;;;;;;;;10.97;100.00;100439.78;5046896;28;19928;-73
2022/09/26 02:00:24;;;;;;;;;;;;;;;10.95;100.00;100436.38;5048927;28;20390;-74
2022/09/26 02:02:49;;;;;;;;;;;;;;;10.93;100.00;100428.50;5046323;28;20019;-73
2022/09/26 02:05:14;;;;;;;;;;;;;;;10.91;100.00;100426.88;5046500;28;20023;-74
2022/09/26 02:07:48;;;;;;;;;;;;;;;10.90;100.00;100415.41;5048468;28;19931;-73
2022/09/26 02:10:16;;;;;;;;;;;;;;;10.89;100.00;100404.91;5046106;28;19943;-74
2022/09/26 02:12:42;;;;;;;;;;;;;;;10.88;100.00;100408.50;5045196;28;20456;-73
2022/09/26 02:15:11;;;;;;;;;;;;;;;10.86;100.00;100397.97;5046236;28;21284;-73
2022/09/26 02:17:39;;;;;;;;;;;;;;;10.84;100.00;100403.34;5047480;28;19935;-74
2022/09/26 02:20:05;;;;;;;;;;;;;;;10.83;100.00;100387.53;5047223;28;19928;-73
2022/09/26 02:22:32;;;;;;;;;;;;;;;10.82;100.00;100383.19;5046219;28;19935;-74
2022/09/26 02:24:58;;;;;;;;;;;;;;;10.82;100.00;100381.41;5047917;28;19924;-74
2022/09/26 02:27:23;;;;;;;;;;;;;;;10.81;100.00;100376.19;5046701;28;19932;-74
2022/09/26 02:29:49;;;;;;;;;;;;;;;10.81;100.00;100370.88;5046757;28;20766;-73
2022/09/26 02:32:15;;;;;;;;;;;;;;;10.81;100.00;100365.59;5047876;28;21244;-74
2022/09/26 02:34:40;;;;;;;;;;;;;;;10.80;100.00;100355.94;5038591;28;19932;-73
2022/09/26 02:37:06;;;;;;;;;;;;;;;10.79;100.00;100348.94;5064626;28;20051;-74
2022/09/26 02:39:32;;;;;;;;;;;;;;;10.80;100.00;100342.72;5047631;28;19967;-74
2022/09/26 02:42:09;;;;;;;;;;;;;;;10.79;100.00;100339.19;5046776;28;19975;-74
2022/09/26 02:44:37;;;;;;;;;;;;;;;10.79;100.00;100327.75;5047775;28;19935;-74
2022/09/26 02:47:12;;;;;;;;;;;;;;;10.80;100.00;100326.81;5063680;28;20405;-74
2022/09/26 02:49:53;;;;;;;;;;;;;;;10.80;100.00;100325.03;5062214;28;19951;-74
2022/09/26 02:52:21;;;;;;;;;;;;;;;10.81;100.00;100323.22;5048007;28;19928;-74
2022/09/26 02:54:53;;;;;;;;;;;;;;;10.81;100.00;100315.28;5047675;28;19935;-74
2022/09/26 02:57:21;;;;;;;;;;;;;;;10.81;100.00;100309.97;5047658;28;19933;-74
2022/09/26 03:00:02;;;;;;;;;;;;;;;10.82;100.00;100298.44;5045796;28;19985;-74
2022/09/26 03:02:46;;;;;;;;;;;;;;;10.82;100.00;100309.03;5063129;28;19951;-74
2022/09/26 03:05:14;;;;;;;;;;;;;;;10.82;100.00;100295.81;5047550;28;20387;-73
2022/09/26 03:07:44;;;;;;;;;;;;;;;10.82;100.00;100295.81;5063299;28;21486;-73
2022/09/26 03:10:09;;;;;;;;;;;;;;;10.81;100.00;100287.03;5046016;28;19932;-73
2022/09/26 03:12:34;;;;;;;;;;;;;;;10.81;100.00;100283.50;5062710;28;20434;-73
2022/09/26 03:15:00;;;;;;;;;;;;;;;10.82;100.00;100271.97;5047352;28;20307;-73
2022/09/26 03:17:25;;;;;;;;;;;;;;;10.81;100.00;100267.63;5045390;28;19964;-74
2022/09/26 03:19:56;;;;;;;;;;;;;;;10.82;100.00;100256.09;5045503;28;20059;-73
2022/09/26 03:22:21;;;;;;;;;;;;;;;10.80;100.00;100242.94;5045138;28;20458;-74
2022/09/26 03:24:47;;;;;;;;;;;;;;;10.80;100.00;100247.38;5046783;28;19933;-73
2022/09/26 03:27:12;;;;;;;;;;;;;;;10.77;100.00;100239.59;5046547;28;20562;-73
2022/09/26 03:29:38;;;;;;;;;;;;;;;10.74;100.00;100232.69;5046352;28;19931;-73
2022/09/26 03:32:04;;;;;;;;;;;;;;;10.72;100.00;100226.63;5029258;28;20007;-73
2022/09/26 03:34:29;;;;;;;;;;;;;;;10.69;100.00;100225.00;5063342;28;20033;-73
2022/09/26 03:36:54;;;;;;;;;;;;;;;10.68;100.00;100228.59;5047659;28;19929;-73
2022/09/26 03:39:19;;;;;;;;;;;;;;;10.66;100.00;100219.00;5047112;28;20357;-74
2022/09/26 03:41:45;;;;;;;;;;;;;;;10.65;100.00;100204.06;5045363;28;20475;-73
2022/09/26 03:44:11;;;;;;;;;;;;;;;10.62;100.00;100202.44;5046849;28;19933;-74
2022/09/26 03:46:37;;;;;;;;;;;;;;;10.61;100.00;100200.75;5047176;28;19928;-73
2022/09/26 03:49:02;;;;;;;;;;;;;;;10.59;100.00;100192.03;5033214;28;19935;-73
2022/09/26 03:51:27;;;;;;;;;;;;;;;10.57;100.00;100188.66;5078689;28;19924;-74
2022/09/26 03:53:52;;;;;;;;;;;;;;;10.56;100.00;100181.63;5046734;28;19936;-73
2022/09/26 03:56:18;;;;;;;;;;;;;;;10.53;100.00;100165.91;5046350;28;19966;-73
2022/09/26 03:58:44;;;;;;;;;;;;;;;10.50;100.00;100174.88;5045918;28;19936;-73
2022/09/26 04:01:11;;;;;;;;;;;;;;;10.48;100.00;100163.53;5046873;28;20451;-73
2022/09/26 04:03:36;;;;;;;;;;;;;;;10.46;100.00;100163.63;5046964;28;21316;-73
2022/09/26 04:06:02;;;;;;;;;;;;;;;10.45;100.00;100158.41;5045318;28;19929;-74
2022/09/26 04:08:27;;;;;;;;;;;;;;;10.42;100.00;100148.84;5045382;28;19929;-73
2022/09/26 04:10:59;;;;;;;;;;;;;;;10.41;100.00;100149.75;5078466;28;20292;-73
2022/09/26 04:13:24;;;;;;;;;;;;;;;10.40;100.00;100134.81;5045162;28;19928;-73
2022/09/26 04:15:56;;;;;;;;;;;;;;;10.38;100.00;100128.75;5047006;28;19940;-73
2022/09/26 04:18:21;;;;;;;;;;;;;;;10.37;100.00;100132.34;5047806;28;19929;-73
2022/09/26 04:20:46;;;;;;;;;;;;;;;10.35;100.00;100128.91;5045643;28;19964;-74
2022/09/26 04:23:12;;;;;;;;;;;;;;;10.31;100.00;100119.47;5045942;28;20377;-74
2022/09/26 04:25:37;;;;;;;;;;;;;;;10.30;100.00;100113.31;5046827;28;19964;-73
2022/09/26 04:28:03;;;;;;;;;;;;;;;10.28;100.00;100109.03;5061321;28;20011;-73
2022/09/26 04:30:29;;;;;;;;;;;;;;;10.26;100.00;100092.41;5046209;28;19933;-74
2022/09/26 04:32:54;;;;;;;;;;;;;;;10.23;100.00;100082.00;5046060;28;19980;-73
2022/09/26 04:35:20;;;;;;;;;;;;;;;10.21;100.00;100081.22;5046354;28;19924;-73
2022/09/26 04:37:46;;;;;;;;;;;;;;;10.21;100.00;100081.22;5049546;28;19936;-73
2022/09/26 04:40:11;;;;;;;;;;;;;;;10.19;100.00;100084.81;5049608;28;19929;-73
2022/09/26 04:42:37;;;;;;;;;;;;;;;10.17;100.00;100070.81;5082509;28;20428;-73
2022/09/26 04:45:02;;;;;;;;;;;;;;;10.16;100.00;100074.41;5049724;28;20357;-73
2022/09/26 04:47:28;;;;;;;;;;;;;;;10.15;100.00;100056.81;5049582;28;19978;-73
2022/09/26 04:49:53;;;;;;;;;;;;;;;10.14;100.00;100065.69;5050006;28;20449;-73
2022/09/26 04:52:19;;;;;;;;;;;;;;;10.13;100.00;100057.88;5048967;28;20114;-72
2022/09/26 04:54:44;;;;;;;;;;;;;;;10.12;100.00;100046.41;5050195;28;19937;-73
2022/09/26 04:57:09;;;;;;;;;;;;;;;10.12;100.00;100049.06;5049531;28;20023;-73
2022/09/26 04:59:35;;;;;;;;;;;;;;;10.11;100.00;100036.78;5065642;28;19925;-73
2022/09/26 05:02:06;;;;;;;;;;;;;;;10.11;100.00;100038.56;5048320;28;19925;-73
2022/09/26 05:04:32;;;;;;;;;;;;;;;10.10;100.00;100029.78;5050698;28;20438;-73
2022/09/26 05:06:58;;;;;;;;;;;;;;;10.10;100.00;100019.22;5050681;28;20129;-73
2022/09/26 05:09:24;;;;;;;;;;;;;;;10.10;100.00;100019.22;5048240;28;19920;-73
2022/09/26 05:11:49;;;;;;;;;;;;;;;10.10;100.00;100011.28;5030730;28;19971;-74
2022/09/26 05:14:14;;;;;;;;;;;;;;;10.10;100.00;100010.41;5050057;28;19983;-73
2022/09/26 05:16:40;;;;;;;;;;;;;;;10.10;100.00;100013.06;5050727;28;20047;-73
2022/09/26 05:19:05;;;;;;;;;;;;;;;10.11;100.00;100004.19;5048282;28;21261;-73
2022/09/26 05:21:30;;;;;;;;;;;;;;;10.11;100.00;99998.88;5049791;28;19928;-73
2022/09/26 05:26:43;;;;;;;;;;;;;;;10.10;100.00;99979.53;5049294;28;19925;-73
2022/09/26 05:29:08;;;;;;;;;;;;;;;10.09;100.00;99977.84;5047858;28;19968;-73
2022/09/26 05:31:36;;;;;;;;;;;;;;;10.09;100.00;99967.25;5049517;28;20265;-73
2022/09/26 05:34:06;;;;;;;;;;;;;;;10.10;100.00;99973.38;5047498;28;20003;-72
2022/09/26 05:36:32;;;;;;;;;;;;;;;10.08;100.00;99962.88;5047740;28;21425;-73
2022/09/26 05:38:57;;;;;;;;;;;;;;;10.07;100.00;99953.25;5048170;28;19940;-73
2022/09/26 05:41:22;;;;;;;;;;;;;;;10.06;100.00;99954.19;5049366;28;19932;-72
2022/09/26 05:43:48;;;;;;;;;;;;;;;10.05;100.00;99944.56;5049013;28;19990;-73
2022/09/26 05:46:13;;;;;;;;;;;;;;;10.05;100.00;99955.16;5063767;28;20415;-74
2022/09/26 05:48:39;;;;;;;;;;;;;;;10.05;100.00;99939.28;5046324;28;19972;-74
2022/09/26 05:51:14;;;;;;;;;;;;;;;10.05;100.00;99932.22;5047575;28;19976;-73
2022/09/26 05:53:40;;;;;;;;;;;;;;;10.05;100.00;99934.84;5049003;28;19935;-72
2022/09/26 05:56:06;;;;;;;;;;;;;;;10.05;100.00;99931.34;5048683;28;20307;-72
2022/09/26 05:58:34;;;;;;;;;;;;;;;10.04;100.00;99911.97;5046733;28;20027;-72
2022/09/26 06:01:02;;;;;;;;;;;;;;;10.05;100.00;99915.47;5048484;28;19924;-73
2022/09/26 06:03:27;;;;;;;;;;;;;;;10.05;100.00;99913.69;5047018;28;19928;-73
2022/09/26 06:05:53;;;;;;;;;;;;;;;10.02;100.00;99916.50;5080645;28;19925;-73
2022/09/26 06:08:18;;;;;;;;;;;;;;;10.01;100.00;99917.44;5048150;28;19929;-72
2022/09/26 06:10:43;;;;;;;;;;;;;;;10.01;100.00;99911.28;5048522;28;19932;-72
2022/09/26 06:13:09;;;;;;;;;;;;;;;10.00;100.00;99904.31;5045787;28;19937;-73
2022/09/26 06:15:34;;;;;;;;;;;;;;;9.99;100.00;99902.59;5047971;28;19972;-73
2022/09/26 06:18:00;;;;;;;;;;;;;;;9.97;100.00;99907.97;5048331;28;19928;-73
2022/09/26 06:20:26;;;;;;;;;;;;;;;9.97;100.00;99902.69;5048988;28;19939;-73
2022/09/26 06:22:51;;;;;;;;;;;;;;;9.96;100.00;99892.22;5064348;28;20447;-73
2022/09/26 06:25:16;;;;;;;;;;;;;;;9.95;100.00;99901.06;5048087;28;19935;-73
2022/09/26 06:27:42;;;;;;;;;;;;;;;9.94;100.00;99900.25;5064085;28;19924;-73
2022/09/26 06:30:09;;;;;;;;;;;;;;;9.93;100.00;99903.81;5048398;28;20023;-73
2022/09/26 06:32:35;;;;;;;;;;;;;;;9.91;100.00;99898.63;5048913;28;19929;-73
2022/09/26 06:35:00;;;;;;;;;;;;;;;9.90;100.00;99894.28;5048280;28;19929;-73
2022/09/26 06:37:25;;;;;;;;;;;;;;;9.90;100.00;99891.63;5048825;28;19929;-73
2022/09/26 06:39:51;;;;;;;;;;;;;;;9.91;100.00;99881.88;5046004;28;19929;-73
2022/09/26 06:42:16;;;;;;;;;;;;;;;9.91;100.00;99873.97;5048522;28;20020;-73
2022/09/26 06:44:42;;;;;;;;;;;;;;;9.92;100.00;99875.69;5048171;28;19982;-74
2022/09/26 06:47:07;;;;;;;;;;;;;;;9.93;100.00;99874.75;5048724;28;19932;-74
2022/09/26 06:49:33;;;;;;;;;;;;;;;9.97;100.00;99875.41;5048130;28;19986;-73
2022/09/26 06:51:59;;;;;;;;;;;;;;;9.97;100.00;99862.19;5048413;28;20028;-74
2022/09/26 06:54:25;;;;;;;;;;;;;;;9.98;100.00;99863.91;5047899;28;19933;-74
2022/09/26 06:56:50;;;;;;;;;;;;;;;10.00;100.00;99865.50;5047986;28;20407;-74
2022/09/26 06:59:15;;;;;;;;;;;;;;;10.00;100.00;99860.22;5046401;28;19928;-74
2022/09/26 07:01:43;;;;;;;;;;;;;;;10.01;100.00;99853.13;5048435;28;20428;-74
2022/09/26 07:04:08;;;;;;;;;;;;;;;10.02;100.00;99833.69;5047666;28;19924;-73
2022/09/26 07:06:33;;;;;;;;;;;;;;;10.03;100.00;99836.22;5048287;28;20433;-74
2022/09/26 07:08:59;;;;;;;;;;;;;;;10.05;100.00;99836.16;5048050;28;21232;-74
2022/09/26 07:11:25;;;;;;;;;;;;;;;10.06;100.00;99832.56;5047748;28;19936;-73
2022/09/26 07:13:51;;;;;;;;;;;;;;;10.08;100.00;99829.81;5069933;28;19932;-74
2022/09/26 07:16:17;;;;;;;;;;;;;;;10.11;100.00;99821.69;5047321;28;20059;-74
2022/09/26 07:18:42;;;;;;;;;;;;;;;10.13;100.00;99823.31;5046449;28;19948;-73
2022/09/26 07:21:08;;;;;;;;;;;;;;;10.15;100.00;99813.47;5047222;28;20392;-74
2022/09/26 07:23:33;;;;;;;;;;;;;;;10.16;100.00;99809.91;5046826;28;19936;-73
2022/09/26 07:25:59;;;;;;;;;;;;;;;10.17;100.00;99801.03;5046985;28;19935;-74
2022/09/26 07:28:25;;;;;;;;;;;;;;;10.19;100.00;99800.94;5061569;28;19934;-73
2022/09/26 07:30:53;;;;;;;;;;;;;;;10.19;100.00;99804.44;5046294;28;19924;-73
2022/09/26 07:33:19;;;;;;;;;;;;;;;10.21;100.00;99799.06;5047205;28;19924;-73
2022/09/26 07:35:44;;;;;;;;;;;;;;;10.23;100.00;99786.56;5045575;28;21245;-74
2022/09/26 07:38:11;;;;;;;;;;;;;;;10.27;100.00;99793.38;5045609;28;20935;-73
2022/09/26 07:40:38;;;;;;;;;;;;;;;10.30;100.00;99777.31;5046594;28;20384;-74
2022/09/26 07:43:03;;;;;;;;;;;;;;;10.34;100.00;99775.34;5046242;28;19959;-74
2022/09/26 07:50:57;;;;;;;;;;;;;;;10.45;100.00;99756.19;5031295;28;19928;-74
2022/09/26 07:53:24;;;;;;;;;;;;;;;10.49;100.00;99757.69;5045144;28;20509;-73
2022/09/26 07:56:05;;;;;;;;;;;;;;;10.54;100.00;99749.47;5047681;28;19929;-73
2022/09/26 07:58:31;;;;;;;;;;;;;;;10.60;100.00;99730.56;5047430;28;20390;-73
2022/09/26 08:00:56;;;;;;;;;;;;;;;10.64;100.00;99728.56;5045435;28;19925;-73
2022/09/26 08:03:25;;;;;;;;;;;;;;;10.67;100.00;99728.38;5047488;28;19935;-74
2022/09/26 08:05:52;;;;;;;;;;;;;;;10.70;100.00;99734.31;5062722;28;19924;-74
2022/09/26 08:08:17;;;;;;;;;;;;;;;10.72;100.00;99728.91;5046863;28;19997;-73
2022/09/26 08:10:43;;;;;;;;;;;;;;;10.73;100.00;99728.81;5045627;28;20382;-74
2022/09/26 08:13:09;;;;;;;;;;;;;;;10.76;100.00;99730.44;5050397;28;19929;-72
2022/09/26 08:15:34;;;;;;;;;;;;;;;10.78;100.00;99733.81;5083268;28;20401;-72
2022/09/26 08:18:00;;;;;;;;;;;;;;;10.82;100.00;99726.53;5049837;28;19928;-72
2022/09/26 08:20:25;;;;;;;;;;;;;;;10.84;100.00;99729.94;5051370;28;19929;-72
2022/09/26 08:22:53;;;;;;;;;;;;;;;10.85;100.00;99732.47;5050778;28;19928;-72
2022/09/26 08:25:18;;;;;;;;;;;;;;;10.86;100.00;99728.88;5051111;28;19928;-73
2022/09/26 08:27:45;;;;;;;;;;;;;;;10.88;100.00;99726.13;5048952;28;20414;-73
2022/09/26 08:30:10;;;;;;;;;;;;;;;10.87;100.00;99727.09;5050589;28;19929;-72
2022/09/26 08:32:36;;;;;;;;;;;;;;;10.90;100.00;99723.41;5050775;28;20363;-72
2022/09/26 08:35:01;;;;;;;;;;;;;;;10.92;100.00;99727.66;5049941;28;20025;-73
2022/09/26 08:37:27;;;;;;;;;;;;;;;10.98;100.00;99718.44;5066765;28;20283;-74
2022/09/26 08:39:52;;;;;;;;;;;;;;;11.03;100.00;99718.13;5049928;28;19925;-73
2022/09/26 08:42:22;;;;;;;;;;;;;;;11.09;100.00;99717.75;5050786;28;19925;-73
2022/09/26 08:44:51;;;;;;;;;;;;;;;11.15;100.00;99709.41;5048147;28;19944;-74
2022/09/26 08:47:39;;;;;;;;;;;;;;;11.18;100.00;99709.22;5045782;28;19929;-75
2022/09/26 08:50:23;;;;;;;;;;;;;;;11.21;100.00;99705.47;5049515;28;20481;-73
2022/09/26 08:52:50;;;;;;;;;;;;;;;11.21;100.00;99703.69;5049560;28;20469;-73
2022/09/26 08:55:17;;;;;;;;;;;;;;;11.20;100.00;99703.78;5046409;28;20384;-74
2022/09/26 08:57:42;;;;;;;;;;;;;;;11.19;100.00;99702.94;5047698;28;19929;-74
2022/09/26 09:00:12;;;;;;;;;;;;;;;11.17;100.00;99715.44;5079829;28;19935;-73
2022/09/26 09:02:40;;;;;;;;;;;;;;;11.13;100.00;99716.59;5049206;28;19951;-74
2022/09/26 09:05:07;;;;;;;;;;;;;;;11.06;100.00;99708.19;5047779;28;19935;-74
2022/09/26 09:07:33;;;;;;;;;;;;;;;10.99;100.00;99707.75;5047304;28;19924;-74
2022/09/26 09:10:00;;;;;;;;;;;;;;;10.93;100.00;99705.50;5048530;28;19983;-74
2022/09/26 09:12:28;;;;;;;;;;;;;;;10.88;100.00;99704.94;5046348;28;20471;-74
2022/09/26 09:15:04;;;;;;;;;;;;;;;10.82;100.00;99700.91;5048658;28;19946;-74
2022/09/26 09:17:30;;;;;;;;;;;;;;;10.77;100.00;99702.13;5048084;28;19925;-74
2022/09/26 09:20:01;;;;;;;;;;;;;;;10.73;100.00;99696.19;5046921;28;19924;-75
2022/09/26 09:22:33;;;;;;;;;;;;;;;10.70;100.00;99691.97;5047443;28;19925;-73
2022/09/26 09:24:59;;;;;;;;;;;;;;;10.67;100.00;99702.75;5048350;28;19924;-73
2022/09/26 09:27:43;;;;;;;;;;;;;;;10.62;100.00;99694.25;5046885;28;19936;-74
2022/09/26 09:30:24;;;;;;;;;;;;;;;10.57;100.00;99681.31;5048346;28;20528;-74
2022/09/26 09:32:52;;;;;;;;;;;;;;;10.54;100.00;99683.31;5064090;28;19935;-74
2022/09/26 09:35:19;;;;;;;;;;;;;;;10.55;100.00;99674.41;5045929;28;19929;-72
2022/09/26 09:37:48;;;;;;;;;;;;;;;10.56;100.00;99679.63;5044080;28;20475;-73
2022/09/26 09:40:25;;;;;;;;;;;;;;;10.57;100.00;99677.81;5061680;28;21335;-73
2022/09/26 09:42:53;;;;;;;;;;;;;;;10.58;100.00;99674.22;5047440;28;20280;-75
2022/09/26 09:45:38;;;;;;;;;;;;;;;10.56;100.00;99666.38;5048321;28;19974;-74
2022/09/26 09:48:05;;;;;;;;;;;;;;;10.55;100.00;99666.47;5046347;28;19947;-74
2022/09/26 09:50:37;;;;;;;;;;;;;;;10.56;100.00;99655.78;5046050;28;20284;-74
2022/09/26 09:53:15;;;;;;;;;;;;;;;10.57;100.00;99659.31;5046617;28;19929;-73
2022/09/26 09:55:44;;;;;;;;;;;;;;;10.61;100.00;99655.50;5059671;28;19931;-73
2022/09/26 09:58:15;;;;;;;;;;;;;;;10.61;100.00;99657.31;5063085;28;19929;-74
2022/09/26 10:00:43;;;;;;;;;;;;;;;10.62;100.00;99649.25;5047140;28;19954;-74
2022/09/26 10:03:10;;;;;;;;;;;;;;;10.62;100.00;99651.91;5047302;28;20383;-73
2022/09/26 10:05:41;;;;;;;;;;;;;;;10.61;100.00;99650.19;5048254;28;19928;-73
2022/09/26 10:08:33;;;;;;;;;;;;;;;10.61;100.00;99642.25;5030202;28;19924;-73
2022/09/26 10:11:20;;;;;;;;;;;;;;;10.61;100.00;99639.63;5047712;28;19986;-73
2022/09/26 10:13:45;;;;;;;;;;;;;;;10.62;100.00;99640.47;5063195;28;19928;-73
2022/09/26 10:16:13;;;;;;;;;;;;;;;10.63;100.00;99634.22;5044524;28;19932;-73
2022/09/26 10:18:53;;;;;;;;;;;;;;;10.64;100.00;99636.78;5045777;28;19933;-74
2022/09/26 10:21:19;;;;;;;;;;;;;;;10.65;100.00;99627.03;5011924;28;19928;-74
2022/09/26 10:23:49;;;;;;;;;;;;;;;10.66;100.00;99641.97;5028796;28;19924;-74
2022/09/26 10:26:15;;;;;;;;;;;;;;;10.69;100.00;99633.84;5044185;28;20039;-74
2022/09/26 10:28:46;;;;;;;;;;;;;;;10.71;100.00;99645.16;5052673;28;20387;-74
2022/09/26 10:31:20;;;;;;;;;;;;;;;10.69;100.00;99633.84;5048106;28;19951;-74
2022/09/26 10:33:46;;;;;;;;;;;;;;;10.72;100.00;99630.97;5046585;28;20010;-74
2022/09/26 10:36:18;;;;;;;;;;;;;;;10.76;100.00;99634.25;5038474;28;20106;-73
2022/09/26 10:40:43;;;;;;;;;;;;;;;10.77;100.00;99626.22;5046041;28;19935;-73
2022/09/26 10:41:37;;;;;;;;;;;;;;;10.75;100.00;99629.91;5047588;28;19932;-73
2022/09/26 10:44:03;;;;;;;;;;;;;;;10.76;100.00;99626.31;5044031;28;19974;-73
2022/09/26 10:46:29;;;;;;;;;;;;;;;10.73;100.00;99616.78;5028834;28;20046;-73
2022/09/26 10:49:00;;;;;;;;;;;;;;;10.72;100.00;99610.66;5062452;28;20410;-73
2022/09/26 10:51:41;;;;;;;;;;;;;;;10.74;100.00;99613.22;5043880;28;19956;-72
2022/09/26 10:54:15;;;;;;;;;;;;;;;10.77;100.00;99613.00;5043804;28;20011;-73
2022/09/26 10:56:44;;;;;;;;;;;;;;;10.81;100.00;99597.75;5046055;28;19925;-72
2022/09/26 10:59:10;;;;;;;;;;;;;;;10.86;100.00;99606.25;5045593;28;19964;-73
2022/09/26 11:01:47;;;;;;;;;;;;;;;10.89;100.00;99603.38;5046066;28;20039;-73
2022/09/26 11:05:55;;;;;;;;;;;;;;;10.90;100.00;99607.72;5046666;28;19952;-73
2022/09/26 11:07:02;;;;;;;;;;;;;;;10.93;100.00;99596.94;5060168;28;20002;-74
2022/09/26 11:09:28;;;;;;;;;;;;;;;10.94;100.00;99605.72;5061333;28;19970;-73
2022/09/26 11:11:54;;;;;;;;;;;;;;;10.94;100.00;99603.06;5033892;28;21324;-73
2022/09/26 11:14:23;;;;;;;;;;;;;;;10.97;100.00;99592.28;5044736;28;19935;-74
2022/09/26 11:16:50;;;;;;;;;;;;;;;11.00;100.00;99587.63;5044554;28;19929;-73
2022/09/26 11:19:23;;;;;;;;;;;;;;;11.03;100.00;99583.06;5047734;28;19932;-73
2022/09/26 11:21:51;;;;;;;;;;;;;;;11.02;100.00;99578.72;5046195;28;19928;-74
2022/09/26 11:24:29;;;;;;;;;;;;;;;11.03;100.00;99578.63;5045183;28;20026;-74
2022/09/26 11:27:09;;;;;;;;;;;;;;;11.06;100.00;99582.88;5045619;28;19934;-73
2022/09/26 11:29:34;;;;;;;;;;;;;;;11.08;100.00;99579.19;5044513;28;20023;-73
2022/09/26 11:32:01;;;;;;;;;;;;;;;11.11;100.00;99576.31;5048409;28;19927;-74
2022/09/26 11:34:27;;;;;;;;;;;;;;;11.16;100.00;99568.03;5048404;28;20080;-74
2022/09/26 11:37:11;;;;;;;;;;;;;;;11.21;100.00;99567.72;5045737;28;19931;-74
2022/09/26 11:39:43;;;;;;;;;;;;;;;11.27;100.00;99565.50;5045269;28;20328;-75
2022/09/26 11:42:14;;;;;;;;;;;;;;;11.36;100.00;99565.81;5045669;28;19960;-73
2022/09/26 11:44:43;;;;;;;;;;;;;;;11.49;100.00;99552.59;5041131;28;20137;-73
2022/09/26 11:47:27;;;;;;;;;;;;;;;11.63;100.00;99554.25;5049674;28;19964;-73
2022/09/26 11:49:52;;;;;;;;;;;;;;;11.74;100.00;99548.19;5049027;28;19932;-74
2022/09/26 11:52:17;;;;;;;;;;;;;;;11.81;100.00;99550.31;5082769;28;19932;-74
2022/09/26 11:54:49;;;;;;;;;;;;;;;11.88;100.00;99555.19;5046531;28;19935;-73
2022/09/26 11:57:33;;;;;;;;;;;;;;;11.94;100.00;99546.78;5040228;28;19928;-73
2022/09/26 12:00:23;;;;;;;;;;;;;;;12.00;100.00;99549.00;5050157;28;19928;-73
2022/09/26 12:02:59;;;;;;;;;;;;;;;12.05;100.00;99554.81;5051600;28;21216;-74
2022/09/26 12:05:30;;;;;;;;;;;;;;;12.02;100.00;99536.47;5051080;28;19936;-76
2022/09/26 12:07:57;;;;;;;;;;;;;;;12.03;100.00;99538.19;5050848;28;20419;-76
2022/09/26 12:10:42;;;;;;;;;;;;;;;12.13;100.00;99532.19;5050913;28;19935;-73
2022/09/26 12:13:07;;;;;;;;;;;;;;;12.16;100.00;99530.16;5049670;28;19964;-73
2022/09/26 12:15:35;;;;;;;;;;;;;;;12.25;100.00;99527.81;5050317;28;20067;-74
2022/09/26 12:18:04;;;;;;;;;;;;;;;12.36;100.00;99525.19;5047994;28;19932;-74
2022/09/26 12:20:39;;;;;;;;;;;;;;;12.37;100.00;99524.25;5048897;28;20044;-74
2022/09/26 12:23:06;;;;;;;;;;;;;;;12.33;100.00;99518.31;5048714;28;19929;-74
2022/09/26 12:25:35;;;;;;;;;;;;;;;12.32;100.00;99523.75;5046783;28;19924;-74
2022/09/26 12:28:05;;;;;;;;;;;;;;;12.28;100.00;99525.78;5050208;28;19935;-74
2022/09/26 12:30:39;;;;;;;;;;;;;;;12.29;100.00;99524.81;5065565;28;19924;-74
2022/09/26 12:33:19;;;;;;;;;;;;;;;12.35;100.00;99520.84;5048942;28;19924;-74
2022/09/26 12:35:51;;;;;;;;;;;;;;;12.40;100.00;99517.84;5047757;28;19929;-73
2022/09/26 12:38:16;;;;;;;;;;;;;;;12.38;100.00;99518.00;5048443;28;19929;-74
2022/09/26 12:41:01;;;;;;;;;;;;;;;12.39;100.00;99516.16;5049937;28;19932;-73
2022/09/26 12:43:30;;;;;;;;;;;;;;;12.41;100.00;99507.13;5053621;28;19924;-74
2022/09/26 12:46:02;;;;;;;;;;;;;;;12.45;100.00;99511.25;5050288;28;19964;-74
2022/09/26 12:48:33;;;;;;;;;;;;;;;12.50;100.00;99517.06;5047239;28;20292;-74
2022/09/26 12:51:15;;;;;;;;;;;;;;;12.54;100.00;99512.38;5048298;28;20019;-74